Accueil
METAR-TAF:

METAR-TAF

Aéroports :

Bornemouth, Angleterre

Aéroport de Bournemouth

latitude: 50-47N, longitude: 001-50W, altitude: 11 m

Observation

Le bulletin a été fait il y a 8 heures et 46 minutes, à 20:20 UTC
Vent calme
Température 6°C
Humidité 87%
Pression 1023 hPa
Visibilité 10 km ou plus
Quelques nuages à une hauteur de 1100 ft

METAR: EGHH 172020Z 00000KT 9999 FEW011 06/04 Q1023

Heure: 05:06 (05:06 UTC)

Prévision

Le bulletin a été fait il y a 9 heures et 12 minutes, à 19:54 UTC
Prévision valable du 17 à 21 UTC au 18 à 06 UTC
Vent 4 kt de sud/sud-est
Visibilité 10 km ou plus
Nuages épars à une hauteur de 4000 ft
Probabilité 30%
du 18 à 00 UTC au 18 à 06 UTC
Visibilité: 8000 m

TAF: EGHH 171954Z 1721/1806 16004KT 9999 SCT040 PROB30 1800/1806 8000

Observations et prévisions météorologiques de plus de 4000 aéroports (messages METAR et TAF).

Les stations disponibles sont représentées par des disques jaunes et rouges sur la carte.

Passer la souris dessus pour voir le nom de la station.

Cliquer dessus pour voir les observations et prévisions météorologiques.

Pour changer de carte: cliquez sur les boutons verts avec une croix noire pour zoomer, sur le bouton vert avec un tiret pour effectuer un zoom arrière, ou sur les flèches vertes pour les cartes adjacentes.


METAR-TAF: